createdAt,value
2019-01-13T00:00:33.666Z,100325.56
2019-01-13T00:01:38.413Z,100328.55
2019-01-13T00:02:41.968Z,100328.55
2019-01-13T00:03:45.545Z,100329.67
2019-01-13T00:04:49.130Z,100330.23
2019-01-13T00:05:52.619Z,100323.94
2019-01-13T00:06:56.300Z,100328.86
2019-01-13T00:07:59.780Z,100325.88
2019-01-13T00:09:03.526Z,100328.61
2019-01-13T00:10:07.839Z,100321.77
2019-01-13T00:11:11.439Z,100319.34
2019-01-13T00:12:14.921Z,100316.84
2019-01-13T00:13:18.582Z,100319.34
2019-01-13T00:14:22.053Z,100321.27
2019-01-13T00:15:25.650Z,100325.63
2019-01-13T00:16:29.226Z,100322.08
2019-01-13T00:17:32.883Z,100323.20
2019-01-13T00:18:36.521Z,100318.28
2019-01-13T00:19:40.153Z,100314.17
2019-01-13T00:20:43.657Z,100318.04
2019-01-13T00:21:47.211Z,100320.78
2019-01-13T00:22:50.804Z,100313.69
2019-01-13T00:23:54.375Z,100319.16
2019-01-13T00:24:57.855Z,100317.23
2019-01-13T00:26:01.479Z,100319.73
2019-01-13T00:27:05.153Z,100321.66
2019-01-13T00:28:08.737Z,100319.80
2019-01-13T00:29:12.248Z,100318.36
2019-01-13T00:30:19.333Z,100321.09
2019-01-13T00:31:23.222Z,100318.92
2019-01-13T00:32:26.699Z,100314.56
2019-01-13T00:33:30.282Z,100316.74
2019-01-13T00:34:33.774Z,100310.20
2019-01-13T00:35:37.274Z,100313.44
2019-01-13T00:36:40.769Z,100312.70
2019-01-13T00:37:44.349Z,100313.20
2019-01-13T00:38:47.927Z,100308.84
2019-01-13T00:39:51.490Z,100317.05
2019-01-13T00:40:55.050Z,100314.63
2019-01-13T00:41:58.695Z,100312.70
2019-01-13T00:43:02.178Z,100315.44
2019-01-13T00:44:05.943Z,100319.55
2019-01-13T00:45:11.388Z,100325.03
2019-01-13T00:46:14.945Z,100322.02
2019-01-13T00:47:18.452Z,100322.02
2019-01-13T00:48:22.011Z,100320.40
2019-01-13T00:49:25.608Z,100323.14
2019-01-13T00:50:29.166Z,100332.97
2019-01-13T00:51:32.657Z,100325.06
2019-01-13T00:52:36.139Z,100326.44
2019-01-13T00:53:39.629Z,100325.63
2019-01-13T00:54:43.149Z,100321.52
2019-01-13T00:55:46.793Z,100314.67
2019-01-13T00:56:50.369Z,100318.29
2019-01-13T00:57:53.932Z,100316.36
2019-01-13T00:58:57.413Z,100319.34
2019-01-13T01:00:00.933Z,100319.09
2019-01-13T01:01:04.877Z,100318.29
2019-01-13T01:02:08.517Z,100317.48
2019-01-13T01:03:12.153Z,100321.03
2019-01-13T01:04:15.845Z,100316.11
2019-01-13T01:05:19.770Z,100316.98
2019-01-13T01:06:23.429Z,100314.50
2019-01-13T01:07:27.058Z,100312.56
2019-01-13T01:08:30.694Z,100312.56
2019-01-13T01:09:34.498Z,100315.30
2019-01-13T01:10:38.164Z,100310.14
2019-01-13T01:11:41.802Z,100305.47
2019-01-13T01:12:45.529Z,100309.58
2019-01-13T01:13:49.090Z,100303.85
2019-01-13T01:14:52.668Z,100301.92
2019-01-13T01:15:56.270Z,100296.44
2019-01-13T01:16:59.764Z,100292.89
2019-01-13T01:18:03.321Z,100298.37
2019-01-13T01:19:06.881Z,100298.13
2019-01-13T01:20:15.370Z,100291.53
2019-01-13T01:21:18.956Z,100289.42
2019-01-13T01:22:22.519Z,100292.65
2019-01-13T01:23:26.148Z,100289.91
2019-01-13T01:24:29.647Z,100292.09
2019-01-13T01:25:33.155Z,100283.70
2019-01-13T01:26:36.664Z,100280.64
2019-01-13T01:27:40.231Z,100285.56
2019-01-13T01:28:44.460Z,100288.30
2019-01-13T01:29:48.106Z,100285.38
2019-01-13T01:30:51.679Z,100277.66
2019-01-13T01:31:55.267Z,100282.57
2019-01-13T01:32:58.974Z,100278.46
2019-01-13T01:34:02.541Z,100278.46
2019-01-13T01:35:06.767Z,100281.77
2019-01-13T01:36:10.330Z,100279.59
2019-01-13T01:37:13.845Z,100285.06
2019-01-13T01:38:17.337Z,100292.72
2019-01-13T01:39:20.897Z,100290.55
2019-01-13T01:40:24.388Z,100294.66
2019-01-13T01:41:28.015Z,100297.70
2019-01-13T01:42:31.532Z,100292.79
2019-01-13T01:43:35.025Z,100293.59
2019-01-13T01:44:38.593Z,100294.72
2019-01-13T01:45:42.093Z,100294.72
2019-01-13T01:46:45.595Z,100292.55
2019-01-13T01:47:49.265Z,100295.53
2019-01-13T01:48:52.757Z,100295.53
2019-01-13T01:49:56.335Z,100289.80
2019-01-13T01:50:59.901Z,100281.03
2019-01-13T01:52:03.642Z,100286.23
2019-01-13T01:53:07.283Z,100281.88
2019-01-13T01:54:10.785Z,100279.94
2019-01-13T01:55:16.417Z,100275.03
2019-01-13T01:56:20.061Z,100284.86
2019-01-13T01:57:23.557Z,100280.75
2019-01-13T01:58:27.069Z,100277.20
2019-01-13T01:59:30.577Z,100284.05
2019-01-13T02:00:40.484Z,100276.95
2019-01-13T02:01:39.645Z,100279.13
2019-01-13T02:02:43.505Z,100284.36
2019-01-13T02:03:47.072Z,100275.59
2019-01-13T02:04:50.592Z,100266.88
2019-01-13T02:05:54.184Z,100276.71
2019-01-13T02:06:57.745Z,100272.04
2019-01-13T02:08:01.408Z,100271.80
2019-01-13T02:09:07.396Z,100269.05
2019-01-13T02:10:13.711Z,100277.52
2019-01-13T02:11:17.292Z,100270.98
2019-01-13T02:12:20.837Z,100272.36
2019-01-13T02:13:24.345Z,100267.13
2019-01-13T02:14:27.894Z,100259.22
2019-01-13T02:15:31.516Z,100262.53
2019-01-13T02:16:35.165Z,100266.63
2019-01-13T02:17:38.635Z,100268.81
2019-01-13T02:18:42.184Z,100262.28
2019-01-13T02:19:45.886Z,100261.16
2019-01-13T02:20:49.360Z,100261.16
2019-01-13T02:21:52.947Z,100254.37
2019-01-13T02:22:56.456Z,100249.71
2019-01-13T02:23:59.968Z,100249.71
2019-01-13T02:25:04.748Z,100243.36
2019-01-13T02:26:08.234Z,100241.73
2019-01-13T02:27:11.718Z,100218.78
2019-01-13T02:28:15.230Z,100216.60
2019-01-13T02:29:18.858Z,100219.59
2019-01-13T02:30:26.598Z,100220.71
2019-01-13T02:31:30.218Z,100222.64
2019-01-13T02:32:33.698Z,100219.91
2019-01-13T02:33:37.274Z,100218.53
2019-01-13T02:34:40.752Z,100214.18
2019-01-13T02:35:44.261Z,100216.36
2019-01-13T02:36:47.766Z,100217.73
2019-01-13T02:37:51.318Z,100214.98
2019-01-13T02:38:54.810Z,100213.62
2019-01-13T02:39:58.335Z,100216.11
2019-01-13T02:41:01.907Z,100223.20
2019-01-13T02:42:05.862Z,100224.02
2019-01-13T02:43:09.369Z,100222.39
2019-01-13T02:44:12.852Z,100219.91
2019-01-13T02:45:21.986Z,100218.85
2019-01-13T02:46:25.484Z,100216.36
2019-01-13T02:47:29.062Z,100212.00
2019-01-13T02:48:32.571Z,100212.81
2019-01-13T02:49:36.115Z,100211.20
2019-01-13T02:50:39.662Z,100207.09
2019-01-13T02:51:43.289Z,100204.91
2019-01-13T02:52:46.830Z,100197.50
2019-01-13T02:53:50.330Z,100205.16
2019-01-13T02:54:53.803Z,100209.58
2019-01-13T02:55:57.345Z,100208.45
2019-01-13T02:57:00.863Z,100207.66
2019-01-13T02:58:04.478Z,100204.91
2019-01-13T02:59:08.059Z,100211.77
2019-01-13T03:00:22.735Z,100211.20
2019-01-13T03:01:26.320Z,100206.28
2019-01-13T03:02:29.893Z,100211.77
2019-01-13T03:03:33.371Z,100213.13
2019-01-13T03:04:36.889Z,100211.52
2019-01-13T03:05:40.542Z,100212.88
2019-01-13T03:06:44.123Z,100220.53
2019-01-13T03:07:47.806Z,100216.98
2019-01-13T03:08:51.353Z,100222.95
2019-01-13T03:09:54.909Z,100219.97
2019-01-13T03:10:58.864Z,100218.61
2019-01-13T03:12:02.506Z,100210.39
2019-01-13T03:13:06.083Z,100216.67
2019-01-13T03:14:09.732Z,100208.14
2019-01-13T03:15:19.360Z,100213.55
2019-01-13T03:16:21.561Z,100216.22
2019-01-13T03:17:25.070Z,100210.98
2019-01-13T03:18:28.548Z,100216.10
2019-01-13T03:19:32.054Z,100220.14
2019-01-13T03:20:35.615Z,100226.84
2019-01-13T03:21:39.127Z,100231.13
2019-01-13T03:22:42.737Z,100233.99
2019-01-13T03:23:46.230Z,100228.13
2019-01-13T03:24:49.793Z,100232.04
2019-01-13T03:25:53.275Z,100235.60
2019-01-13T03:26:56.820Z,100230.53
2019-01-13T03:28:00.378Z,100236.38
2019-01-13T03:29:04.092Z,100229.86
2019-01-13T03:30:13.487Z,100230.30
2019-01-13T03:31:17.020Z,100226.52
2019-01-13T03:32:20.565Z,100220.83
2019-01-13T03:33:24.086Z,100219.53
2019-01-13T03:34:27.551Z,100206.20
2019-01-13T03:35:31.022Z,100213.78
2019-01-13T03:36:34.518Z,100209.53
2019-01-13T03:37:38.238Z,100214.28
2019-01-13T03:38:41.767Z,100217.52
2019-01-13T03:39:45.276Z,100215.98
2019-01-13T03:40:48.742Z,100210.65
2019-01-13T03:41:52.623Z,100210.75
2019-01-13T03:42:56.445Z,100206.69
2019-01-13T03:43:59.942Z,100201.77
2019-01-13T03:45:04.068Z,100204.10
2019-01-13T03:46:07.688Z,100198.67
2019-01-13T03:47:11.281Z,100194.88
2019-01-13T03:48:14.853Z,100187.83
2019-01-13T03:49:18.351Z,100190.42
2019-01-13T03:50:22.915Z,100179.61
2019-01-13T03:51:26.452Z,100179.52
2019-01-13T03:52:30.075Z,100171.83
2019-01-13T03:53:33.652Z,100168.33
2019-01-13T03:54:37.312Z,100157.95
2019-01-13T03:55:40.817Z,100155.04
2019-01-13T03:56:44.446Z,100149.59
2019-01-13T03:57:47.982Z,100145.84
2019-01-13T03:58:51.533Z,100145.77
2019-01-13T03:59:55.022Z,100136.63
2019-01-13T04:00:58.583Z,100138.94
2019-01-13T04:02:02.141Z,100134.04
2019-01-13T04:03:05.782Z,100135.81
2019-01-13T04:04:09.434Z,100128.95
2019-01-13T04:05:13.207Z,100132.39
2019-01-13T04:06:16.696Z,100133.67
2019-01-13T04:07:20.272Z,100129.50
2019-01-13T04:08:23.808Z,100119.20
2019-01-13T04:09:27.274Z,100125.41
2019-01-13T04:10:30.933Z,100132.28
2019-01-13T04:11:34.479Z,100128.86
2019-01-13T04:12:38.120Z,100132.31
2019-01-13T04:13:41.626Z,100127.36
2019-01-13T04:14:45.174Z,100128.97
2019-01-13T04:15:48.865Z,100128.63
2019-01-13T04:16:52.696Z,100126.17
2019-01-13T04:17:57.523Z,100123.67
2019-01-13T04:19:01.018Z,100119.44
2019-01-13T04:20:05.847Z,100118.86
2019-01-13T04:21:09.443Z,100115.92
2019-01-13T04:22:12.998Z,100116.73
2019-01-13T04:23:16.559Z,100120.75
2019-01-13T04:24:20.140Z,100111.02
2019-01-13T04:25:23.639Z,100110.67
2019-01-13T04:26:27.232Z,100105.06
2019-01-13T04:27:30.720Z,100108.84
2019-01-13T04:28:34.211Z,100096.61
2019-01-13T04:29:37.704Z,100089.50
2019-01-13T04:30:41.216Z,100095.93
2019-01-13T04:31:44.745Z,100096.96
2019-01-13T04:32:48.245Z,100094.80
2019-01-13T04:33:51.752Z,100085.96
2019-01-13T04:34:55.390Z,100088.14
2019-01-13T04:35:59.030Z,100084.02
2019-01-13T04:37:02.542Z,100081.98
2019-01-13T04:38:06.223Z,100074.61
2019-01-13T04:39:09.722Z,100075.30
2019-01-13T04:40:13.284Z,100070.36
2019-01-13T04:41:16.779Z,100065.89
2019-01-13T04:42:20.308Z,100058.66
2019-01-13T04:43:23.872Z,100063.13
2019-01-13T04:44:27.391Z,100069.67
2019-01-13T04:45:30.956Z,100072.58
2019-01-13T04:46:34.520Z,100065.00
2019-01-13T04:47:38.046Z,100062.94
2019-01-13T04:48:41.542Z,100063.75
2019-01-13T04:49:45.030Z,100059.95
2019-01-13T04:50:48.517Z,100063.98
2019-01-13T04:51:52.007Z,100072.81
2019-01-13T04:52:55.514Z,100061.11
2019-01-13T04:53:59.011Z,100064.20
2019-01-13T04:55:02.646Z,100069.59
2019-01-13T04:56:06.289Z,100059.77
2019-01-13T04:57:09.831Z,100058.73
2019-01-13T04:58:13.353Z,100048.97
2019-01-13T04:59:16.905Z,100058.84
2019-01-13T05:00:22.499Z,100057.01
2019-01-13T05:01:26.063Z,100054.71
2019-01-13T05:02:29.556Z,100054.02
2019-01-13T05:03:33.096Z,100057.23
2019-01-13T05:04:36.658Z,100062.86
2019-01-13T05:05:40.145Z,100049.08
2019-01-13T05:06:43.650Z,100044.87
2019-01-13T05:07:47.137Z,100039.84
2019-01-13T05:08:50.790Z,100036.52
2019-01-13T05:09:54.286Z,100027.68
2019-01-13T05:10:57.832Z,100023.20
2019-01-13T05:12:01.325Z,100024.45
2019-01-13T05:13:04.948Z,100025.14
2019-01-13T05:14:08.460Z,100021.73
2019-01-13T05:15:12.304Z,100024.36
2019-01-13T05:16:15.806Z,100021.73
2019-01-13T05:17:19.282Z,100019.86
2019-01-13T05:18:22.782Z,100015.50
2019-01-13T05:19:26.355Z,100009.31
2019-01-13T05:20:29.858Z,100008.05
2019-01-13T05:21:33.415Z,100002.75
2019-01-13T05:22:36.972Z,99998.48
2019-01-13T05:23:40.463Z,99988.16
2019-01-13T05:24:43.982Z,99984.72
2019-01-13T05:25:47.475Z,99989.99
2019-01-13T05:26:51.015Z,99987.01
2019-01-13T05:27:54.504Z,99987.47
2019-01-13T05:28:58.023Z,99987.59
2019-01-13T05:30:01.508Z,99989.77
2019-01-13T05:31:05.143Z,99983.92
2019-01-13T05:32:09.105Z,99987.01
2019-01-13T05:33:12.650Z,99976.68
2019-01-13T05:34:16.165Z,99974.38
2019-01-13T05:35:19.932Z,99972.08
2019-01-13T05:36:23.478Z,99971.73
2019-01-13T05:37:26.959Z,99971.64
2019-01-13T05:38:30.559Z,99971.33
2019-01-13T05:39:34.081Z,99959.97
2019-01-13T05:40:37.647Z,99960.19
2019-01-13T05:41:41.278Z,99949.03
2019-01-13T05:42:45.015Z,99953.08
2019-01-13T05:43:48.560Z,99944.12
2019-01-13T05:44:52.091Z,99947.09
2019-01-13T05:45:55.587Z,99944.80
2019-01-13T05:46:59.084Z,99951.47
2019-01-13T05:48:02.590Z,99951.47
2019-01-13T05:49:06.145Z,99945.14
2019-01-13T05:50:12.299Z,99939.28
2019-01-13T05:51:15.868Z,99937.80
2019-01-13T05:52:19.355Z,99935.72
2019-01-13T05:53:22.907Z,99935.84
2019-01-13T05:54:26.391Z,99937.00
2019-01-13T05:55:30.068Z,99939.75
2019-01-13T05:56:33.559Z,99935.17
2019-01-13T05:57:37.041Z,99939.08
2019-01-13T05:58:40.536Z,99934.14
2019-01-13T05:59:44.027Z,99932.41
2019-01-13T06:00:47.610Z,99928.74
2019-01-13T06:01:51.184Z,99937.93
2019-01-13T06:02:54.731Z,99931.13
2019-01-13T06:03:58.216Z,99922.96
2019-01-13T06:05:01.777Z,99926.64
2019-01-13T06:06:05.428Z,99926.19
2019-01-13T06:07:08.990Z,99925.38
2019-01-13T06:08:12.613Z,99920.91
2019-01-13T06:09:16.170Z,99917.36
2019-01-13T06:10:20.705Z,99917.36
2019-01-13T06:11:24.216Z,99921.17
2019-01-13T06:12:27.718Z,99923.00
2019-01-13T06:13:31.289Z,99927.72
2019-01-13T06:14:34.769Z,99931.38
2019-01-13T06:15:38.397Z,99923.91
2019-01-13T06:16:41.912Z,99923.22
2019-01-13T06:17:45.563Z,99928.38
2019-01-13T06:18:49.057Z,99925.87
2019-01-13T06:19:52.609Z,99931.03
2019-01-13T06:20:56.103Z,99930.23
2019-01-13T06:21:59.606Z,99930.45
2019-01-13T06:23:03.168Z,99936.77
2019-01-13T06:24:06.653Z,99939.30
2019-01-13T06:25:10.395Z,99937.70
2019-01-13T06:26:13.895Z,99932.05
2019-01-13T06:27:17.490Z,99931.02
2019-01-13T06:28:20.980Z,99927.72
2019-01-13T06:29:24.477Z,99923.67
2019-01-13T06:30:27.971Z,99919.09
2019-01-13T06:31:31.447Z,99930.55
2019-01-13T06:32:35.051Z,99928.59
2019-01-13T06:33:38.553Z,99921.12
2019-01-13T06:34:42.032Z,99921.70
2019-01-13T06:35:45.610Z,99924.11
2019-01-13T06:36:49.244Z,99923.88
2019-01-13T06:37:52.782Z,99921.48
2019-01-13T06:38:56.357Z,99916.77
2019-01-13T06:39:59.837Z,99918.16
2019-01-13T06:42:06.007Z,99926.66
2019-01-13T06:43:09.616Z,99923.91
2019-01-13T06:44:13.144Z,99926.42
2019-01-13T06:45:19.061Z,99922.86
2019-01-13T06:46:22.575Z,99925.39
2019-01-13T06:47:26.096Z,99919.08
2019-01-13T06:48:29.579Z,99921.38
2019-01-13T06:49:33.175Z,99920.23
2019-01-13T06:50:36.648Z,99919.55
2019-01-13T06:51:40.226Z,99916.12
2019-01-13T06:52:44.099Z,99920.02
2019-01-13T06:53:47.711Z,99917.94
2019-01-13T06:54:51.220Z,99916.87
2019-01-13T06:55:54.722Z,99915.39
2019-01-13T06:56:58.405Z,99912.64
2019-01-13T06:58:01.912Z,99907.60
2019-01-13T06:59:05.629Z,99909.67
2019-01-13T07:00:14.952Z,99911.51
2019-01-13T07:01:18.462Z,99907.60
2019-01-13T07:02:22.033Z,99907.60
2019-01-13T07:03:25.552Z,99903.70
2019-01-13T07:04:29.054Z,99901.39
2019-01-13T07:05:32.603Z,99904.95
2019-01-13T07:06:36.106Z,99905.05
2019-01-13T07:07:39.613Z,99902.21
2019-01-13T07:08:43.085Z,99898.88
2019-01-13T07:09:46.595Z,99902.13
2019-01-13T07:10:50.188Z,99905.77
2019-01-13T07:11:53.856Z,99903.95
2019-01-13T07:12:57.470Z,99903.02
2019-01-13T07:14:00.939Z,99894.76
2019-01-13T07:15:07.284Z,99904.98
2019-01-13T07:16:10.903Z,99894.08
2019-01-13T07:17:14.517Z,99898.88
2019-01-13T07:18:18.053Z,99900.61
2019-01-13T07:19:21.526Z,99897.49
2019-01-13T07:20:25.106Z,99893.83
2019-01-13T07:21:28.614Z,99889.93
2019-01-13T07:22:32.089Z,99896.02
2019-01-13T07:23:35.689Z,99889.02
2019-01-13T07:24:39.173Z,99890.17
2019-01-13T07:25:42.647Z,99893.73
2019-01-13T07:26:46.237Z,99887.64
2019-01-13T07:27:49.783Z,99890.05
2019-01-13T07:28:53.322Z,99889.47
2019-01-13T07:29:56.811Z,99881.66
2019-01-13T07:31:00.375Z,99884.30
2019-01-13T07:32:10.634Z,99890.38
2019-01-13T07:33:09.124Z,99888.79
2019-01-13T07:34:12.701Z,99883.02
2019-01-13T07:35:16.287Z,99888.30
2019-01-13T07:36:19.752Z,99882.34
2019-01-13T07:37:23.337Z,99876.03
2019-01-13T07:38:26.855Z,99876.03
2019-01-13T07:39:30.422Z,99883.27
2019-01-13T07:40:33.935Z,99870.42
2019-01-13T07:41:37.417Z,99872.73
2019-01-13T07:42:40.900Z,99873.65
2019-01-13T07:43:44.405Z,99865.39
2019-01-13T07:44:47.927Z,99866.31
2019-01-13T07:45:51.489Z,99869.73
2019-01-13T07:46:54.988Z,99871.91
2019-01-13T07:47:58.562Z,99862.63
2019-01-13T07:49:02.056Z,99866.09
2019-01-13T07:50:09.185Z,99859.30
2019-01-13T07:51:12.725Z,99857.48
2019-01-13T07:52:16.228Z,99857.36
2019-01-13T07:53:19.840Z,99851.38
2019-01-13T07:54:23.342Z,99849.88
2019-01-13T07:55:26.983Z,99849.07
2019-01-13T07:56:30.487Z,99848.72
2019-01-13T07:57:33.967Z,99849.88
2019-01-13T07:58:37.440Z,99846.89
2019-01-13T07:59:40.927Z,99844.71
2019-01-13T08:00:46.385Z,99843.81
2019-01-13T08:01:49.883Z,99847.81
2019-01-13T08:02:53.442Z,99846.22
2019-01-13T08:03:57.122Z,99847.94
2019-01-13T08:05:00.638Z,99844.73
2019-01-13T08:06:04.289Z,99848.41
2019-01-13T08:07:07.904Z,99848.41
2019-01-13T08:08:11.529Z,99844.38
2019-01-13T08:09:15.008Z,99844.06
2019-01-13T08:10:18.747Z,99849.31
2019-01-13T08:11:22.275Z,99839.92
2019-01-13T08:12:25.769Z,99849.56
2019-01-13T08:13:29.323Z,99840.26
2019-01-13T08:14:32.900Z,99845.29
2019-01-13T08:15:36.678Z,99840.36
2019-01-13T08:16:40.211Z,99840.36
2019-01-13T08:17:44.657Z,99839.78
2019-01-13T08:18:48.151Z,99839.55
2019-01-13T08:19:52.017Z,99837.61
2019-01-13T08:20:55.525Z,99827.52
2019-01-13T08:21:59.096Z,99834.40
2019-01-13T08:23:02.698Z,99832.57
2019-01-13T08:24:06.321Z,99845.09
2019-01-13T08:25:10.057Z,99837.17
2019-01-13T08:26:13.628Z,99836.92
2019-01-13T08:27:17.112Z,99833.36
2019-01-13T08:28:20.609Z,99838.19
2019-01-13T08:29:24.097Z,99839.12
2019-01-13T08:30:27.716Z,99832.69
2019-01-13T08:31:31.239Z,99838.54
2019-01-13T08:32:34.794Z,99833.84
2019-01-13T08:33:38.283Z,99828.55
2019-01-13T08:34:41.788Z,99832.56
2019-01-13T08:35:45.342Z,99817.42
2019-01-13T08:36:48.862Z,99829.36
2019-01-13T08:37:52.490Z,99820.17
2019-01-13T08:38:56.047Z,99815.59
2019-01-13T08:39:59.538Z,99818.80
2019-01-13T08:41:03.075Z,99820.88
2019-01-13T08:42:06.802Z,99809.86
2019-01-13T08:43:10.448Z,99809.95
2019-01-13T08:44:13.939Z,99813.77
2019-01-13T08:45:17.874Z,99814.44
2019-01-13T08:46:21.436Z,99816.97
2019-01-13T08:47:24.949Z,99814.33
2019-01-13T08:48:28.446Z,99818.36
2019-01-13T08:49:31.913Z,99815.38
2019-01-13T08:50:35.459Z,99810.58
2019-01-13T08:51:38.965Z,99807.11
2019-01-13T08:52:42.718Z,99808.49
2019-01-13T08:53:46.293Z,99807.47
2019-01-13T08:54:49.862Z,99813.31
2019-01-13T08:55:53.772Z,99810.79
2019-01-13T08:56:57.276Z,99805.06
2019-01-13T08:58:00.916Z,99804.83
2019-01-13T08:59:04.537Z,99808.28
2019-01-13T09:00:19.532Z,99810.46
2019-01-13T09:01:23.009Z,99807.03
2019-01-13T09:02:32.171Z,99812.66
2019-01-13T09:03:31.825Z,99803.92
2019-01-13T09:04:35.369Z,99805.98
2019-01-13T09:05:38.949Z,99806.34
2019-01-13T09:06:42.485Z,99804.96
2019-01-13T09:07:46.036Z,99804.96
2019-01-13T09:08:49.672Z,99803.01
2019-01-13T09:09:53.210Z,99800.03
2019-01-13T09:10:56.789Z,99798.41
2019-01-13T09:12:00.289Z,99800.02
2019-01-13T09:13:03.908Z,99793.39
2019-01-13T09:14:07.456Z,99792.12
2019-01-13T09:15:16.513Z,99794.30
2019-01-13T09:16:20.062Z,99797.38
2019-01-13T09:17:23.579Z,99790.14
2019-01-13T09:18:27.058Z,99789.45
2019-01-13T09:19:30.587Z,99791.30
2019-01-13T09:20:34.108Z,99790.83
2019-01-13T09:21:37.650Z,99782.00
2019-01-13T09:22:41.156Z,99778.19
2019-01-13T09:23:44.689Z,99785.78
2019-01-13T09:24:48.198Z,99775.22
2019-01-13T09:25:51.703Z,99776.59
2019-01-13T09:26:55.171Z,99783.70
2019-01-13T09:27:58.675Z,99777.97
2019-01-13T09:29:02.179Z,99777.05
2019-01-13T09:30:08.719Z,99771.89
2019-01-13T09:31:12.292Z,99770.77
2019-01-13T09:32:15.776Z,99770.77
2019-01-13T09:33:19.255Z,99771.91
2019-01-13T09:34:22.820Z,99765.25
2019-01-13T09:35:27.069Z,99769.38
2019-01-13T09:36:30.695Z,99764.91
2019-01-13T09:37:34.267Z,99763.52
2019-01-13T09:38:38.035Z,99766.73
2019-01-13T09:39:41.932Z,99763.05
2019-01-13T09:40:47.059Z,99760.64
2019-01-13T09:41:50.785Z,99762.15
2019-01-13T09:42:54.734Z,99763.75
2019-01-13T09:43:58.207Z,99765.25
2019-01-13T09:45:01.724Z,99764.00
2019-01-13T09:46:05.469Z,99766.28
2019-01-13T09:47:09.016Z,99764.23
2019-01-13T09:48:12.587Z,99765.37
2019-01-13T09:49:16.125Z,99761.12
2019-01-13T09:50:22.008Z,99757.34
2019-01-13T09:51:25.608Z,99750.23
2019-01-13T09:52:29.154Z,99755.04
2019-01-13T09:53:32.653Z,99741.98
2019-01-13T09:54:36.174Z,99746.33
2019-01-13T09:55:39.641Z,99758.94
2019-01-13T09:56:43.280Z,99756.09
2019-01-13T09:57:47.050Z,99755.39
2019-01-13T09:58:50.545Z,99759.52
2019-01-13T09:59:54.016Z,99761.92
2019-01-13T10:00:57.662Z,99760.77
2019-01-13T10:02:01.168Z,99765.48
2019-01-13T10:03:04.792Z,99753.66
2019-01-13T10:04:08.460Z,99754.11
2019-01-13T10:05:12.188Z,99750.56
2019-01-13T10:06:17.007Z,99749.19
2019-01-13T10:07:20.749Z,99759.17
2019-01-13T10:08:24.383Z,99747.13
2019-01-13T10:09:27.894Z,99745.18
2019-01-13T10:10:31.606Z,99745.62
2019-01-13T10:11:35.152Z,99736.47
2019-01-13T10:12:38.977Z,99738.65
2019-01-13T10:13:42.700Z,99731.86
2019-01-13T10:14:46.469Z,99734.30
2019-01-13T10:15:50.265Z,99726.36
2019-01-13T10:16:53.963Z,99718.09
2019-01-13T10:17:57.651Z,99721.91
2019-01-13T10:19:01.274Z,99718.09
2019-01-13T10:20:07.854Z,99710.99
2019-01-13T10:21:11.617Z,99710.99
2019-01-13T10:22:15.360Z,99707.09
2019-01-13T10:23:19.015Z,99714.45
2019-01-13T10:24:22.613Z,99713.75
2019-01-13T10:25:26.233Z,99722.23
2019-01-13T10:26:29.792Z,99714.67
2019-01-13T10:27:33.324Z,99711.34
2019-01-13T10:28:36.946Z,99705.16
2019-01-13T10:29:40.483Z,99706.55
2019-01-13T10:30:44.097Z,99711.25
2019-01-13T10:31:47.657Z,99711.82
2019-01-13T10:32:54.479Z,99715.38
2019-01-13T10:33:56.526Z,99719.16
2019-01-13T10:35:00.038Z,99722.00
2019-01-13T10:36:03.650Z,99716.50
2019-01-13T10:37:07.278Z,99711.57
2019-01-13T10:38:10.760Z,99719.16
2019-01-13T10:39:14.276Z,99719.37
2019-01-13T10:40:28.181Z,99724.53
2019-01-13T10:41:31.813Z,99718.23
2019-01-13T10:42:35.422Z,99718.36
2019-01-13T10:43:38.923Z,99716.17
2019-01-13T10:44:42.431Z,99720.91
2019-01-13T10:45:45.985Z,99713.92
2019-01-13T10:46:49.482Z,99710.13
2019-01-13T10:47:53.091Z,99707.08
2019-01-13T10:48:56.838Z,99694.59
2019-01-13T10:50:00.503Z,99702.38
2019-01-13T10:51:04.292Z,99690.45
2019-01-13T10:52:07.936Z,99688.72
2019-01-13T10:53:11.488Z,99690.45
2019-01-13T10:54:15.030Z,99681.95
2019-01-13T10:55:18.801Z,99689.98
2019-01-13T10:56:22.337Z,99675.30
2019-01-13T10:57:25.845Z,99679.66
2019-01-13T10:58:29.357Z,99672.11
2019-01-13T10:59:32.835Z,99667.88
2019-01-13T11:00:36.641Z,99656.97
2019-01-13T11:01:40.203Z,99642.43
2019-01-13T11:02:43.738Z,99652.73
2019-01-13T11:03:47.333Z,99641.86
2019-01-13T11:04:50.828Z,99645.18
2019-01-13T11:05:54.414Z,99640.94
2019-01-13T11:06:57.899Z,99644.84
2019-01-13T11:08:01.633Z,99640.26
2019-01-13T11:09:10.993Z,99640.14
2019-01-13T11:10:16.670Z,99636.36
2019-01-13T11:11:20.360Z,99633.73
2019-01-13T11:12:23.942Z,99633.39
2019-01-13T11:13:27.585Z,99632.11
2019-01-13T11:14:31.078Z,99629.70
2019-01-13T11:15:34.813Z,99629.59
2019-01-13T11:16:40.110Z,99633.48
2019-01-13T11:17:43.893Z,99629.14
2019-01-13T11:18:47.546Z,99632.22
2019-01-13T11:19:51.400Z,99628.11
2019-01-13T11:20:55.099Z,99618.49
2019-01-13T11:21:59.541Z,99613.80
2019-01-13T11:23:03.865Z,99610.94
2019-01-13T11:24:07.528Z,99617.46
2019-01-13T11:25:11.760Z,99623.06
2019-01-13T11:26:15.464Z,99621.72
2019-01-13T11:27:19.095Z,99617.36
2019-01-13T11:28:22.777Z,99612.69
2019-01-13T11:29:32.552Z,99616.80
2019-01-13T11:30:31.738Z,99611.86
2019-01-13T11:31:35.498Z,99610.04
2019-01-13T11:32:39.096Z,99617.82
2019-01-13T11:33:42.777Z,99613.13
2019-01-13T11:34:46.576Z,99615.30
2019-01-13T11:35:50.462Z,99609.00
2019-01-13T11:36:54.100Z,99609.66
2019-01-13T11:37:57.968Z,99603.45
2019-01-13T11:39:01.453Z,99616.67
2019-01-13T11:40:08.010Z,99603.81
2019-01-13T11:41:11.796Z,99607.14
2019-01-13T11:42:15.354Z,99600.36
2019-01-13T11:43:22.177Z,99597.61
2019-01-13T11:44:26.060Z,99600.81
2019-01-13T11:45:29.666Z,99585.81
2019-01-13T11:46:33.175Z,99577.42
2019-01-13T11:47:36.682Z,99583.38
2019-01-13T11:48:40.210Z,99570.52
2019-01-13T11:49:44.199Z,99577.62
2019-01-13T11:50:47.769Z,99567.19
2019-01-13T11:51:51.522Z,99568.91
2019-01-13T11:52:55.158Z,99570.73
2019-01-13T11:53:59.045Z,99570.38
2019-01-13T11:55:03.160Z,99568.66
2019-01-13T11:56:06.862Z,99572.78
2019-01-13T11:57:19.353Z,99569.67
2019-01-13T11:58:23.321Z,99562.70
2019-01-13T11:59:28.053Z,99570.95
2019-01-13T12:00:37.235Z,99557.55
2019-01-13T12:01:45.983Z,99567.76
2019-01-13T12:02:49.799Z,99567.53
2019-01-13T12:03:54.016Z,99564.43
2019-01-13T12:04:57.692Z,99559.28
2019-01-13T12:06:01.632Z,99568.33
2019-01-13T12:07:05.570Z,99564.08
2019-01-13T12:08:09.360Z,99568.42
2019-01-13T12:09:12.939Z,99563.37
2019-01-13T12:10:19.097Z,99562.22
2019-01-13T12:11:22.713Z,99558.09
2019-01-13T12:12:26.484Z,99549.83
2019-01-13T12:13:30.121Z,99544.69
2019-01-13T12:14:33.652Z,99546.41
2019-01-13T12:15:37.448Z,99541.27
2019-01-13T12:16:41.022Z,99542.06
2019-01-13T12:17:44.692Z,99535.31
2019-01-13T12:18:48.379Z,99533.14
2019-01-13T12:19:52.122Z,99531.87
2019-01-13T12:20:57.796Z,99519.61